sensor_id;sensor_type;location;lat;lon;timestamp;temperature;humidity
5027;DHT22;2532;52.480;13.354;2024-02-28T00:00:01;6.30;99.90
5027;DHT22;2532;52.480;13.354;2024-02-28T00:02:29;6.30;99.90
5027;DHT22;2532;52.480;13.354;2024-02-28T00:04:56;6.30;99.90
5027;DHT22;2532;52.480;13.354;2024-02-28T00:07:24;6.30;99.90
5027;DHT22;2532;52.480;13.354;2024-02-28T00:09:51;6.30;99.90
5027;DHT22;2532;52.480;13.354;2024-02-28T00:12:22;6.30;99.90
5027;DHT22;2532;52.480;13.354;2024-02-28T00:14:50;6.30;99.90
5027;DHT22;2532;52.480;13.354;2024-02-28T00:17:19;6.30;99.90
5027;DHT22;2532;52.480;13.354;2024-02-28T00:19:46;6.30;99.90
5027;DHT22;2532;52.480;13.354;2024-02-28T00:22:12;6.30;99.90
5027;DHT22;2532;52.480;13.354;2024-02-28T00:24:40;6.20;99.90
5027;DHT22;2532;52.480;13.354;2024-02-28T00:27:07;6.30;99.90
5027;DHT22;2532;52.480;13.354;2024-02-28T00:29:34;6.30;99.90
5027;DHT22;2532;52.480;13.354;2024-02-28T00:32:02;6.30;99.90
5027;DHT22;2532;52.480;13.354;2024-02-28T00:34:30;6.30;99.90
5027;DHT22;2532;52.480;13.354;2024-02-28T00:36:57;6.30;99.90
5027;DHT22;2532;52.480;13.354;2024-02-28T00:39:24;6.30;99.90
5027;DHT22;2532;52.480;13.354;2024-02-28T00:41:54;6.40;99.90
5027;DHT22;2532;52.480;13.354;2024-02-28T00:44:21;6.30;99.90
5027;DHT22;2532;52.480;13.354;2024-02-28T00:46:48;6.30;99.90
5027;DHT22;2532;52.480;13.354;2024-02-28T00:49:14;6.20;99.90
5027;DHT22;2532;52.480;13.354;2024-02-28T00:51:43;6.20;99.90
5027;DHT22;2532;52.480;13.354;2024-02-28T00:54:10;6.20;99.90
5027;DHT22;2532;52.480;13.354;2024-02-28T00:56:39;6.20;99.90
5027;DHT22;2532;52.480;13.354;2024-02-28T00:59:06;6.10;99.90
5027;DHT22;2532;52.480;13.354;2024-02-28T01:01:35;6.10;99.90
5027;DHT22;2532;52.480;13.354;2024-02-28T01:04:02;6.10;99.90
5027;DHT22;2532;52.480;13.354;2024-02-28T01:06:29;6.10;99.90
5027;DHT22;2532;52.480;13.354;2024-02-28T01:08:58;6.10;99.90
5027;DHT22;2532;52.480;13.354;2024-02-28T01:11:25;6.10;99.90
5027;DHT22;2532;52.480;13.354;2024-02-28T01:13:52;6.10;99.90
5027;DHT22;2532;52.480;13.354;2024-02-28T01:16:19;6.10;99.90
5027;DHT22;2532;52.480;13.354;2024-02-28T01:18:47;6.10;99.90
5027;DHT22;2532;52.480;13.354;2024-02-28T01:21:13;6.00;99.90
5027;DHT22;2532;52.480;13.354;2024-02-28T01:23:40;6.00;99.90
5027;DHT22;2532;52.480;13.354;2024-02-28T01:26:09;5.90;99.90
5027;DHT22;2532;52.480;13.354;2024-02-28T01:28:36;5.90;99.90
5027;DHT22;2532;52.480;13.354;2024-02-28T01:31:03;5.90;99.90
5027;DHT22;2532;52.480;13.354;2024-02-28T01:33:31;5.90;99.90
5027;DHT22;2532;52.480;13.354;2024-02-28T01:35:58;5.90;99.90
5027;DHT22;2532;52.480;13.354;2024-02-28T01:38:25;5.90;99.90
5027;DHT22;2532;52.480;13.354;2024-02-28T01:40:52;5.90;99.90
5027;DHT22;2532;52.480;13.354;2024-02-28T01:43:20;5.90;99.90
5027;DHT22;2532;52.480;13.354;2024-02-28T01:45:47;5.90;99.90
5027;DHT22;2532;52.480;13.354;2024-02-28T01:48:14;5.80;99.90
5027;DHT22;2532;52.480;13.354;2024-02-28T01:50:41;5.80;99.90
5027;DHT22;2532;52.480;13.354;2024-02-28T01:53:09;5.90;99.90
5027;DHT22;2532;52.480;13.354;2024-02-28T01:55:37;5.90;99.90
5027;DHT22;2532;52.480;13.354;2024-02-28T01:58:04;5.90;99.90
5027;DHT22;2532;52.480;13.354;2024-02-28T02:00:33;6.00;99.90
5027;DHT22;2532;52.480;13.354;2024-02-28T02:03:01;6.00;99.90
5027;DHT22;2532;52.480;13.354;2024-02-28T02:05:28;6.00;99.90
5027;DHT22;2532;52.480;13.354;2024-02-28T02:07:57;6.00;99.90
5027;DHT22;2532;52.480;13.354;2024-02-28T02:10:25;6.00;99.90
5027;DHT22;2532;52.480;13.354;2024-02-28T02:12:52;5.90;99.90
5027;DHT22;2532;52.480;13.354;2024-02-28T02:15:19;6.00;99.90
5027;DHT22;2532;52.480;13.354;2024-02-28T02:17:47;6.00;99.90
5027;DHT22;2532;52.480;13.354;2024-02-28T02:20:14;6.00;99.90
5027;DHT22;2532;52.480;13.354;2024-02-28T02:22:43;6.10;99.90
5027;DHT22;2532;52.480;13.354;2024-02-28T02:25:10;6.10;99.90
5027;DHT22;2532;52.480;13.354;2024-02-28T02:27:37;6.00;99.90
5027;DHT22;2532;52.480;13.354;2024-02-28T02:30:05;6.10;99.90
5027;DHT22;2532;52.480;13.354;2024-02-28T02:32:32;6.10;99.90
5027;DHT22;2532;52.480;13.354;2024-02-28T02:34:59;6.10;99.90
5027;DHT22;2532;52.480;13.354;2024-02-28T02:37:26;6.10;99.90
5027;DHT22;2532;52.480;13.354;2024-02-28T02:39:54;6.10;99.90
5027;DHT22;2532;52.480;13.354;2024-02-28T02:42:21;6.20;99.90
5027;DHT22;2532;52.480;13.354;2024-02-28T02:44:48;6.10;99.90
5027;DHT22;2532;52.480;13.354;2024-02-28T02:47:15;6.10;99.90
5027;DHT22;2532;52.480;13.354;2024-02-28T02:49:42;6.20;99.90
5027;DHT22;2532;52.480;13.354;2024-02-28T02:52:09;6.20;99.90
5027;DHT22;2532;52.480;13.354;2024-02-28T02:54:36;6.10;99.90
5027;DHT22;2532;52.480;13.354;2024-02-28T02:57:05;6.20;99.90
5027;DHT22;2532;52.480;13.354;2024-02-28T02:59:32;6.20;99.90
5027;DHT22;2532;52.480;13.354;2024-02-28T03:01:59;6.10;99.90
5027;DHT22;2532;52.480;13.354;2024-02-28T03:04:26;6.10;99.90
5027;DHT22;2532;52.480;13.354;2024-02-28T03:06:53;6.10;99.90
5027;DHT22;2532;52.480;13.354;2024-02-28T03:09:19;6.10;99.90
5027;DHT22;2532;52.480;13.354;2024-02-28T03:11:46;6.20;99.90
5027;DHT22;2532;52.480;13.354;2024-02-28T03:14:20;6.10;99.90
5027;DHT22;2532;52.480;13.354;2024-02-28T03:16:47;6.20;99.90
5027;DHT22;2532;52.480;13.354;2024-02-28T03:19:15;6.10;99.90
5027;DHT22;2532;52.480;13.354;2024-02-28T03:21:41;6.10;99.90
5027;DHT22;2532;52.480;13.354;2024-02-28T03:24:08;6.00;99.90
5027;DHT22;2532;52.480;13.354;2024-02-28T03:26:36;6.00;99.90
5027;DHT22;2532;52.480;13.354;2024-02-28T03:29:03;5.90;99.90
5027;DHT22;2532;52.480;13.354;2024-02-28T03:31:31;5.90;99.90
5027;DHT22;2532;52.480;13.354;2024-02-28T03:33:58;5.90;99.90
5027;DHT22;2532;52.480;13.354;2024-02-28T03:36:25;6.00;99.90
5027;DHT22;2532;52.480;13.354;2024-02-28T03:38:52;5.90;99.90
5027;DHT22;2532;52.480;13.354;2024-02-28T03:41:19;5.90;99.90
5027;DHT22;2532;52.480;13.354;2024-02-28T03:43:46;5.90;99.90
5027;DHT22;2532;52.480;13.354;2024-02-28T03:46:13;5.90;99.90
5027;DHT22;2532;52.480;13.354;2024-02-28T03:48:42;5.90;99.90
5027;DHT22;2532;52.480;13.354;2024-02-28T03:51:09;5.90;99.90
5027;DHT22;2532;52.480;13.354;2024-02-28T03:53:36;5.90;99.90
5027;DHT22;2532;52.480;13.354;2024-02-28T03:56:03;5.90;99.90
5027;DHT22;2532;52.480;13.354;2024-02-28T03:58:30;5.80;99.90
5027;DHT22;2532;52.480;13.354;2024-02-28T04:00:57;5.80;99.90
5027;DHT22;2532;52.480;13.354;2024-02-28T04:03:24;5.80;99.90
5027;DHT22;2532;52.480;13.354;2024-02-28T04:05:51;5.80;99.90
5027;DHT22;2532;52.480;13.354;2024-02-28T04:08:18;5.70;99.90
5027;DHT22;2532;52.480;13.354;2024-02-28T04:10:45;5.80;99.90
5027;DHT22;2532;52.480;13.354;2024-02-28T04:13:13;5.80;99.90
5027;DHT22;2532;52.480;13.354;2024-02-28T04:15:40;5.80;99.90
5027;DHT22;2532;52.480;13.354;2024-02-28T04:18:07;5.80;99.90
5027;DHT22;2532;52.480;13.354;2024-02-28T04:20:35;5.80;99.90
5027;DHT22;2532;52.480;13.354;2024-02-28T04:23:03;5.90;99.90
5027;DHT22;2532;52.480;13.354;2024-02-28T04:25:30;5.90;99.90
5027;DHT22;2532;52.480;13.354;2024-02-28T04:27:57;5.80;99.90
5027;DHT22;2532;52.480;13.354;2024-02-28T04:30:24;5.80;99.90
5027;DHT22;2532;52.480;13.354;2024-02-28T04:32:51;5.80;99.90
5027;DHT22;2532;52.480;13.354;2024-02-28T04:35:18;5.80;99.90
5027;DHT22;2532;52.480;13.354;2024-02-28T04:37:45;5.80;99.90
5027;DHT22;2532;52.480;13.354;2024-02-28T04:40:14;5.80;99.90
5027;DHT22;2532;52.480;13.354;2024-02-28T04:42:42;5.90;99.90
5027;DHT22;2532;52.480;13.354;2024-02-28T04:45:09;5.90;99.90
5027;DHT22;2532;52.480;13.354;2024-02-28T04:47:36;5.90;99.90
5027;DHT22;2532;52.480;13.354;2024-02-28T04:50:04;5.90;99.90
5027;DHT22;2532;52.480;13.354;2024-02-28T04:52:31;5.90;99.90
5027;DHT22;2532;52.480;13.354;2024-02-28T04:54:58;5.90;99.90
5027;DHT22;2532;52.480;13.354;2024-02-28T04:57:27;5.90;99.90
5027;DHT22;2532;52.480;13.354;2024-02-28T04:59:54;5.90;99.90
5027;DHT22;2532;52.480;13.354;2024-02-28T05:02:21;5.80;99.90
5027;DHT22;2532;52.480;13.354;2024-02-28T05:04:48;5.90;99.90
5027;DHT22;2532;52.480;13.354;2024-02-28T05:07:16;5.90;99.90
5027;DHT22;2532;52.480;13.354;2024-02-28T05:09:43;5.90;99.90
5027;DHT22;2532;52.480;13.354;2024-02-28T05:12:10;5.90;99.90
5027;DHT22;2532;52.480;13.354;2024-02-28T05:14:40;5.90;99.90
5027;DHT22;2532;52.480;13.354;2024-02-28T05:17:07;5.90;99.90
5027;DHT22;2532;52.480;13.354;2024-02-28T05:19:34;5.90;99.90
5027;DHT22;2532;52.480;13.354;2024-02-28T05:22:01;5.90;99.90
5027;DHT22;2532;52.480;13.354;2024-02-28T05:24:28;5.90;99.90
5027;DHT22;2532;52.480;13.354;2024-02-28T05:26:55;6.00;99.90
5027;DHT22;2532;52.480;13.354;2024-02-28T05:29:22;5.90;99.90
5027;DHT22;2532;52.480;13.354;2024-02-28T05:31:50;6.00;99.90
5027;DHT22;2532;52.480;13.354;2024-02-28T05:34:17;6.00;99.90
5027;DHT22;2532;52.480;13.354;2024-02-28T05:36:44;6.00;99.90
5027;DHT22;2532;52.480;13.354;2024-02-28T05:39:11;6.00;99.90
5027;DHT22;2532;52.480;13.354;2024-02-28T05:41:38;6.00;99.90
5027;DHT22;2532;52.480;13.354;2024-02-28T05:44:04;5.90;99.90
5027;DHT22;2532;52.480;13.354;2024-02-28T05:46:31;5.90;99.90
5027;DHT22;2532;52.480;13.354;2024-02-28T05:49:00;5.90;99.90
5027;DHT22;2532;52.480;13.354;2024-02-28T05:51:27;5.90;99.90
5027;DHT22;2532;52.480;13.354;2024-02-28T05:53:54;5.90;99.90
5027;DHT22;2532;52.480;13.354;2024-02-28T05:56:20;5.80;99.90
5027;DHT22;2532;52.480;13.354;2024-02-28T05:58:48;5.80;99.90
5027;DHT22;2532;52.480;13.354;2024-02-28T06:01:16;5.80;99.90
5027;DHT22;2532;52.480;13.354;2024-02-28T06:03:45;5.90;99.90
5027;DHT22;2532;52.480;13.354;2024-02-28T06:06:13;5.90;99.90
5027;DHT22;2532;52.480;13.354;2024-02-28T06:08:40;5.90;99.90
5027;DHT22;2532;52.480;13.354;2024-02-28T06:11:08;5.80;99.90
5027;DHT22;2532;52.480;13.354;2024-02-28T06:13:35;5.80;99.90
5027;DHT22;2532;52.480;13.354;2024-02-28T06:16:03;5.80;99.90
5027;DHT22;2532;52.480;13.354;2024-02-28T06:18:30;5.80;99.90
5027;DHT22;2532;52.480;13.354;2024-02-28T06:20:59;5.90;99.90
5027;DHT22;2532;52.480;13.354;2024-02-28T06:23:27;5.90;99.90
5027;DHT22;2532;52.480;13.354;2024-02-28T06:25:55;5.90;99.90
5027;DHT22;2532;52.480;13.354;2024-02-28T06:28:21;5.90;99.90
5027;DHT22;2532;52.480;13.354;2024-02-28T06:30:48;5.90;99.90
5027;DHT22;2532;52.480;13.354;2024-02-28T06:33:15;6.00;99.90
5027;DHT22;2532;52.480;13.354;2024-02-28T06:35:42;5.90;99.90
5027;DHT22;2532;52.480;13.354;2024-02-28T06:38:09;5.90;99.90
5027;DHT22;2532;52.480;13.354;2024-02-28T06:40:37;5.90;99.90
5027;DHT22;2532;52.480;13.354;2024-02-28T06:43:04;5.90;99.90
5027;DHT22;2532;52.480;13.354;2024-02-28T06:45:31;5.90;99.90
5027;DHT22;2532;52.480;13.354;2024-02-28T06:47:58;5.90;99.90
5027;DHT22;2532;52.480;13.354;2024-02-28T06:50:25;5.90;99.90
5027;DHT22;2532;52.480;13.354;2024-02-28T06:52:52;5.90;99.90
5027;DHT22;2532;52.480;13.354;2024-02-28T06:55:19;5.90;99.90
5027;DHT22;2532;52.480;13.354;2024-02-28T06:57:48;5.90;99.90
5027;DHT22;2532;52.480;13.354;2024-02-28T07:00:15;5.90;99.90
5027;DHT22;2532;52.480;13.354;2024-02-28T07:02:44;5.90;99.90
5027;DHT22;2532;52.480;13.354;2024-02-28T07:05:11;5.90;99.90
5027;DHT22;2532;52.480;13.354;2024-02-28T07:07:38;5.90;99.90
5027;DHT22;2532;52.480;13.354;2024-02-28T07:10:04;5.90;99.90
5027;DHT22;2532;52.480;13.354;2024-02-28T07:12:31;5.80;99.90
5027;DHT22;2532;52.480;13.354;2024-02-28T07:15:00;5.80;99.90
5027;DHT22;2532;52.480;13.354;2024-02-28T07:17:26;5.80;99.90
5027;DHT22;2532;52.480;13.354;2024-02-28T07:19:53;5.80;99.90
5027;DHT22;2532;52.480;13.354;2024-02-28T07:22:20;5.80;99.90
5027;DHT22;2532;52.480;13.354;2024-02-28T07:24:47;5.80;99.90
5027;DHT22;2532;52.480;13.354;2024-02-28T07:27:14;5.80;99.90
5027;DHT22;2532;52.480;13.354;2024-02-28T07:29:42;5.80;99.90
5027;DHT22;2532;52.480;13.354;2024-02-28T07:32:10;5.80;99.90
5027;DHT22;2532;52.480;13.354;2024-02-28T07:34:37;5.80;99.90
5027;DHT22;2532;52.480;13.354;2024-02-28T07:37:04;5.80;99.90
5027;DHT22;2532;52.480;13.354;2024-02-28T07:39:31;5.90;99.90
5027;DHT22;2532;52.480;13.354;2024-02-28T07:41:58;5.80;99.90
5027;DHT22;2532;52.480;13.354;2024-02-28T07:44:27;5.80;99.90
5027;DHT22;2532;52.480;13.354;2024-02-28T07:46:56;5.80;99.90
5027;DHT22;2532;52.480;13.354;2024-02-28T07:49:25;5.80;99.90
5027;DHT22;2532;52.480;13.354;2024-02-28T07:51:52;5.80;99.90
5027;DHT22;2532;52.480;13.354;2024-02-28T07:54:18;5.80;99.90
5027;DHT22;2532;52.480;13.354;2024-02-28T07:56:45;5.80;99.90
5027;DHT22;2532;52.480;13.354;2024-02-28T07:59:12;5.80;99.90
5027;DHT22;2532;52.480;13.354;2024-02-28T08:01:39;5.80;99.90
5027;DHT22;2532;52.480;13.354;2024-02-28T08:04:06;5.90;99.90
5027;DHT22;2532;52.480;13.354;2024-02-28T08:06:34;5.90;99.90
5027;DHT22;2532;52.480;13.354;2024-02-28T08:09:01;5.90;99.90
5027;DHT22;2532;52.480;13.354;2024-02-28T08:11:29;5.80;99.90
5027;DHT22;2532;52.480;13.354;2024-02-28T08:13:56;5.80;99.90
5027;DHT22;2532;52.480;13.354;2024-02-28T08:16:23;5.80;99.90
5027;DHT22;2532;52.480;13.354;2024-02-28T08:18:50;5.80;99.90
5027;DHT22;2532;52.480;13.354;2024-02-28T08:21:17;5.70;99.90
5027;DHT22;2532;52.480;13.354;2024-02-28T08:23:46;5.70;99.90
5027;DHT22;2532;52.480;13.354;2024-02-28T08:26:14;5.70;99.90
5027;DHT22;2532;52.480;13.354;2024-02-28T08:28:41;5.70;99.90
5027;DHT22;2532;52.480;13.354;2024-02-28T08:31:07;5.80;99.90
5027;DHT22;2532;52.480;13.354;2024-02-28T08:33:34;5.70;99.90
5027;DHT22;2532;52.480;13.354;2024-02-28T08:36:01;5.70;99.90
5027;DHT22;2532;52.480;13.354;2024-02-28T08:38:28;5.70;99.90
5027;DHT22;2532;52.480;13.354;2024-02-28T08:40:56;5.70;99.90
5027;DHT22;2532;52.480;13.354;2024-02-28T08:43:23;5.80;99.90
5027;DHT22;2532;52.480;13.354;2024-02-28T08:45:50;5.70;99.90
5027;DHT22;2532;52.480;13.354;2024-02-28T08:48:19;5.70;99.90
5027;DHT22;2532;52.480;13.354;2024-02-28T08:50:46;5.70;99.90
5027;DHT22;2532;52.480;13.354;2024-02-28T08:53:13;5.70;99.90
5027;DHT22;2532;52.480;13.354;2024-02-28T08:55:40;5.70;99.90
5027;DHT22;2532;52.480;13.354;2024-02-28T08:58:08;5.60;99.90
5027;DHT22;2532;52.480;13.354;2024-02-28T09:00:36;5.60;99.90
5027;DHT22;2532;52.480;13.354;2024-02-28T09:03:04;5.60;99.90
5027;DHT22;2532;52.480;13.354;2024-02-28T09:05:31;5.60;99.90
5027;DHT22;2532;52.480;13.354;2024-02-28T09:07:58;5.60;99.90
5027;DHT22;2532;52.480;13.354;2024-02-28T09:10:25;5.70;99.90
5027;DHT22;2532;52.480;13.354;2024-02-28T09:12:52;5.60;99.90
5027;DHT22;2532;52.480;13.354;2024-02-28T09:15:20;5.60;99.90
5027;DHT22;2532;52.480;13.354;2024-02-28T09:17:47;5.50;99.90
5027;DHT22;2532;52.480;13.354;2024-02-28T09:20:14;5.50;99.90
5027;DHT22;2532;52.480;13.354;2024-02-28T09:22:41;5.50;99.90
5027;DHT22;2532;52.480;13.354;2024-02-28T09:25:08;5.60;99.90
5027;DHT22;2532;52.480;13.354;2024-02-28T09:27:35;5.60;99.90
5027;DHT22;2532;52.480;13.354;2024-02-28T09:30:02;5.60;99.90
5027;DHT22;2532;52.480;13.354;2024-02-28T09:32:31;5.60;99.90
5027;DHT22;2532;52.480;13.354;2024-02-28T09:34:58;5.70;99.90
5027;DHT22;2532;52.480;13.354;2024-02-28T09:37:25;5.60;99.90
5027;DHT22;2532;52.480;13.354;2024-02-28T09:39:52;5.70;99.90
5027;DHT22;2532;52.480;13.354;2024-02-28T09:42:19;5.60;99.90
5027;DHT22;2532;52.480;13.354;2024-02-28T09:44:46;5.60;99.90
5027;DHT22;2532;52.480;13.354;2024-02-28T09:47:13;5.60;99.90
5027;DHT22;2532;52.480;13.354;2024-02-28T09:49:42;5.70;99.90
5027;DHT22;2532;52.480;13.354;2024-02-28T09:52:09;5.60;99.90
5027;DHT22;2532;52.480;13.354;2024-02-28T09:54:36;5.50;99.90
5027;DHT22;2532;52.480;13.354;2024-02-28T09:57:04;5.50;99.90
5027;DHT22;2532;52.480;13.354;2024-02-28T09:59:31;5.50;99.90
5027;DHT22;2532;52.480;13.354;2024-02-28T10:02:02;5.50;99.90
5027;DHT22;2532;52.480;13.354;2024-02-28T10:04:29;5.50;99.90
5027;DHT22;2532;52.480;13.354;2024-02-28T10:07:10;5.60;99.90
5027;DHT22;2532;52.480;13.354;2024-02-28T10:09:38;5.60;99.90
5027;DHT22;2532;52.480;13.354;2024-02-28T10:12:06;5.70;99.90
5027;DHT22;2532;52.480;13.354;2024-02-28T10:14:33;5.60;99.90
5027;DHT22;2532;52.480;13.354;2024-02-28T10:17:00;5.60;99.90
5027;DHT22;2532;52.480;13.354;2024-02-28T10:19:27;5.60;99.90
5027;DHT22;2532;52.480;13.354;2024-02-28T10:21:55;5.60;99.90
5027;DHT22;2532;52.480;13.354;2024-02-28T10:24:25;5.60;99.80
5027;DHT22;2532;52.480;13.354;2024-02-28T10:26:52;5.60;99.80
5027;DHT22;2532;52.480;13.354;2024-02-28T10:29:22;5.60;99.90
5027;DHT22;2532;52.480;13.354;2024-02-28T10:31:49;5.60;99.90
5027;DHT22;2532;52.480;13.354;2024-02-28T10:34:16;5.60;99.90
5027;DHT22;2532;52.480;13.354;2024-02-28T10:36:44;5.60;99.90
5027;DHT22;2532;52.480;13.354;2024-02-28T10:39:12;5.70;99.90
5027;DHT22;2532;52.480;13.354;2024-02-28T10:41:41;5.70;99.90
5027;DHT22;2532;52.480;13.354;2024-02-28T10:44:08;5.70;99.90
5027;DHT22;2532;52.480;13.354;2024-02-28T10:46:37;5.70;99.90
5027;DHT22;2532;52.480;13.354;2024-02-28T10:49:05;5.70;99.90
5027;DHT22;2532;52.480;13.354;2024-02-28T10:51:35;5.80;99.80
5027;DHT22;2532;52.480;13.354;2024-02-28T10:54:09;5.90;99.70
5027;DHT22;2532;52.480;13.354;2024-02-28T10:56:37;5.90;99.20
5027;DHT22;2532;52.480;13.354;2024-02-28T10:59:07;5.90;99.20
5027;DHT22;2532;52.480;13.354;2024-02-28T11:01:35;5.90;98.80
5027;DHT22;2532;52.480;13.354;2024-02-28T11:04:03;5.90;98.90
5027;DHT22;2532;52.480;13.354;2024-02-28T11:06:31;5.90;98.80
5027;DHT22;2532;52.480;13.354;2024-02-28T11:08:59;5.90;98.60
5027;DHT22;2532;52.480;13.354;2024-02-28T11:11:30;5.80;98.50
5027;DHT22;2532;52.480;13.354;2024-02-28T11:13:58;5.90;98.60
5027;DHT22;2532;52.480;13.354;2024-02-28T11:16:29;5.90;98.50
5027;DHT22;2532;52.480;13.354;2024-02-28T11:18:57;5.90;98.20
5027;DHT22;2532;52.480;13.354;2024-02-28T11:21:24;5.90;98.00
5027;DHT22;2532;52.480;13.354;2024-02-28T11:23:52;5.90;97.80
5027;DHT22;2532;52.480;13.354;2024-02-28T11:26:23;5.90;97.80
5027;DHT22;2532;52.480;13.354;2024-02-28T11:28:51;5.90;97.80
5027;DHT22;2532;52.480;13.354;2024-02-28T11:31:18;6.00;97.70
5027;DHT22;2532;52.480;13.354;2024-02-28T11:33:46;6.00;97.50
5027;DHT22;2532;52.480;13.354;2024-02-28T11:36:13;6.00;97.40
5027;DHT22;2532;52.480;13.354;2024-02-28T11:38:40;6.00;97.30
5027;DHT22;2532;52.480;13.354;2024-02-28T11:41:07;5.90;97.20
5027;DHT22;2532;52.480;13.354;2024-02-28T11:43:34;6.00;97.10
5027;DHT22;2532;52.480;13.354;2024-02-28T11:46:07;5.90;97.00
5027;DHT22;2532;52.480;13.354;2024-02-28T11:48:34;6.00;97.10
5027;DHT22;2532;52.480;13.354;2024-02-28T11:51:02;6.00;97.10
5027;DHT22;2532;52.480;13.354;2024-02-28T11:53:29;6.00;97.10
5027;DHT22;2532;52.480;13.354;2024-02-28T11:55:56;6.10;96.90
5027;DHT22;2532;52.480;13.354;2024-02-28T11:58:23;6.10;96.70
5027;DHT22;2532;52.480;13.354;2024-02-28T12:00:51;6.10;96.70
5027;DHT22;2532;52.480;13.354;2024-02-28T12:03:21;6.10;96.70
5027;DHT22;2532;52.480;13.354;2024-02-28T12:05:49;6.10;96.50
5027;DHT22;2532;52.480;13.354;2024-02-28T12:08:19;6.10;96.40
5027;DHT22;2532;52.480;13.354;2024-02-28T12:10:46;6.10;96.30
5027;DHT22;2532;52.480;13.354;2024-02-28T12:13:16;6.00;96.10
5027;DHT22;2532;52.480;13.354;2024-02-28T12:15:43;6.00;96.30
5027;DHT22;2532;52.480;13.354;2024-02-28T12:18:11;6.10;96.50
5027;DHT22;2532;52.480;13.354;2024-02-28T12:20:37;6.10;96.50
5027;DHT22;2532;52.480;13.354;2024-02-28T12:23:04;6.20;96.50
5027;DHT22;2532;52.480;13.354;2024-02-28T12:25:32;6.20;96.40
5027;DHT22;2532;52.480;13.354;2024-02-28T12:28:00;6.30;96.50
5027;DHT22;2532;52.480;13.354;2024-02-28T12:30:27;6.40;96.50
5027;DHT22;2532;52.480;13.354;2024-02-28T12:32:54;6.40;96.40
5027;DHT22;2532;52.480;13.354;2024-02-28T12:35:21;6.50;96.30
5027;DHT22;2532;52.480;13.354;2024-02-28T12:37:48;6.50;96.10
5027;DHT22;2532;52.480;13.354;2024-02-28T12:40:16;6.50;96.10
5027;DHT22;2532;52.480;13.354;2024-02-28T12:42:45;6.50;96.10
5027;DHT22;2532;52.480;13.354;2024-02-28T12:45:12;6.60;96.10
5027;DHT22;2532;52.480;13.354;2024-02-28T12:47:39;6.70;96.20
5027;DHT22;2532;52.480;13.354;2024-02-28T12:50:07;6.70;96.10
5027;DHT22;2532;52.480;13.354;2024-02-28T12:52:35;6.80;96.10
5027;DHT22;2532;52.480;13.354;2024-02-28T12:55:02;6.80;96.00
5027;DHT22;2532;52.480;13.354;2024-02-28T12:57:29;6.90;96.00
5027;DHT22;2532;52.480;13.354;2024-02-28T12:59:57;6.80;95.90
5027;DHT22;2532;52.480;13.354;2024-02-28T13:02:24;6.80;95.80
5027;DHT22;2532;52.480;13.354;2024-02-28T13:04:51;6.90;95.90
5027;DHT22;2532;52.480;13.354;2024-02-28T13:07:18;6.90;95.90
5027;DHT22;2532;52.480;13.354;2024-02-28T13:09:48;7.00;95.90
5027;DHT22;2532;52.480;13.354;2024-02-28T13:12:15;7.00;95.70
5027;DHT22;2532;52.480;13.354;2024-02-28T13:14:42;7.00;95.40
5027;DHT22;2532;52.480;13.354;2024-02-28T13:17:11;7.00;95.30
5027;DHT22;2532;52.480;13.354;2024-02-28T13:19:38;7.10;95.90
5027;DHT22;2532;52.480;13.354;2024-02-28T13:22:05;7.10;95.80
5027;DHT22;2532;52.480;13.354;2024-02-28T13:24:32;7.10;95.60
5027;DHT22;2532;52.480;13.354;2024-02-28T13:27:01;7.10;95.00
5027;DHT22;2532;52.480;13.354;2024-02-28T13:29:28;7.00;95.00
5027;DHT22;2532;52.480;13.354;2024-02-28T13:31:56;7.10;95.20
5027;DHT22;2532;52.480;13.354;2024-02-28T13:34:25;7.10;95.40
5027;DHT22;2532;52.480;13.354;2024-02-28T13:36:52;7.10;95.60
5027;DHT22;2532;52.480;13.354;2024-02-28T13:39:19;7.10;95.70
5027;DHT22;2532;52.480;13.354;2024-02-28T13:41:46;7.20;95.70
5027;DHT22;2532;52.480;13.354;2024-02-28T13:44:16;7.20;95.70
5027;DHT22;2532;52.480;13.354;2024-02-28T13:46:44;7.30;95.80
5027;DHT22;2532;52.480;13.354;2024-02-28T13:49:12;7.30;95.30
5027;DHT22;2532;52.480;13.354;2024-02-28T13:51:42;7.30;95.30
5027;DHT22;2532;52.480;13.354;2024-02-28T13:54:09;7.30;95.20
5027;DHT22;2532;52.480;13.354;2024-02-28T13:56:35;7.30;95.00
5027;DHT22;2532;52.480;13.354;2024-02-28T13:59:03;7.40;94.80
5027;DHT22;2532;52.480;13.354;2024-02-28T14:01:30;7.30;94.70
5027;DHT22;2532;52.480;13.354;2024-02-28T14:03:58;7.30;94.70
5027;DHT22;2532;52.480;13.354;2024-02-28T14:06:25;7.40;95.10
5027;DHT22;2532;52.480;13.354;2024-02-28T14:08:54;7.50;94.80
5027;DHT22;2532;52.480;13.354;2024-02-28T14:11:21;7.60;94.30
5027;DHT22;2532;52.480;13.354;2024-02-28T14:13:48;7.70;94.10
5027;DHT22;2532;52.480;13.354;2024-02-28T14:16:15;7.70;93.90
5027;DHT22;2532;52.480;13.354;2024-02-28T14:18:44;7.80;93.80
5027;DHT22;2532;52.480;13.354;2024-02-28T14:21:12;7.80;93.80
5027;DHT22;2532;52.480;13.354;2024-02-28T14:23:39;7.80;93.50
5027;DHT22;2532;52.480;13.354;2024-02-28T14:26:08;7.80;93.60
5027;DHT22;2532;52.480;13.354;2024-02-28T14:28:35;7.90;93.60
5027;DHT22;2532;52.480;13.354;2024-02-28T14:31:02;8.00;93.50
5027;DHT22;2532;52.480;13.354;2024-02-28T14:33:29;8.10;93.10
5027;DHT22;2532;52.480;13.354;2024-02-28T14:35:58;8.10;93.00
5027;DHT22;2532;52.480;13.354;2024-02-28T14:38:26;8.10;93.00
5027;DHT22;2532;52.480;13.354;2024-02-28T14:40:55;8.00;93.10
5027;DHT22;2532;52.480;13.354;2024-02-28T14:43:23;7.90;93.10
5027;DHT22;2532;52.480;13.354;2024-02-28T14:45:51;7.90;93.30
5027;DHT22;2532;52.480;13.354;2024-02-28T14:48:18;8.00;93.20
5027;DHT22;2532;52.480;13.354;2024-02-28T14:50:45;8.00;93.20
5027;DHT22;2532;52.480;13.354;2024-02-28T14:53:12;8.00;93.20
5027;DHT22;2532;52.480;13.354;2024-02-28T14:55:41;8.10;93.20
5027;DHT22;2532;52.480;13.354;2024-02-28T14:58:10;8.10;93.00
5027;DHT22;2532;52.480;13.354;2024-02-28T15:00:38;8.10;92.90
5027;DHT22;2532;52.480;13.354;2024-02-28T15:03:05;8.10;93.10
5027;DHT22;2532;52.480;13.354;2024-02-28T15:05:32;8.10;93.00
5027;DHT22;2532;52.480;13.354;2024-02-28T15:07:59;8.10;92.90
5027;DHT22;2532;52.480;13.354;2024-02-28T15:10:26;8.10;92.90
5027;DHT22;2532;52.480;13.354;2024-02-28T15:12:52;8.20;92.80
5027;DHT22;2532;52.480;13.354;2024-02-28T15:15:19;8.20;92.80
5027;DHT22;2532;52.480;13.354;2024-02-28T15:17:47;8.20;92.70
5027;DHT22;2532;52.480;13.354;2024-02-28T15:20:14;8.20;92.50
5027;DHT22;2532;52.480;13.354;2024-02-28T15:22:41;8.20;92.50
5027;DHT22;2532;52.480;13.354;2024-02-28T15:25:11;8.20;92.40
5027;DHT22;2532;52.480;13.354;2024-02-28T15:27:38;8.20;92.30
5027;DHT22;2532;52.480;13.354;2024-02-28T15:30:06;8.20;92.30
5027;DHT22;2532;52.480;13.354;2024-02-28T15:32:33;8.20;92.00
5027;DHT22;2532;52.480;13.354;2024-02-28T15:35:01;8.20;92.00
5027;DHT22;2532;52.480;13.354;2024-02-28T15:37:28;8.10;92.00
5027;DHT22;2532;52.480;13.354;2024-02-28T15:39:55;8.10;92.50
5027;DHT22;2532;52.480;13.354;2024-02-28T15:42:22;8.10;92.20
5027;DHT22;2532;52.480;13.354;2024-02-28T15:44:48;8.10;92.20
5027;DHT22;2532;52.480;13.354;2024-02-28T15:47:15;8.10;92.20
5027;DHT22;2532;52.480;13.354;2024-02-28T15:49:42;8.10;91.90
5027;DHT22;2532;52.480;13.354;2024-02-28T15:52:11;8.10;91.90
5027;DHT22;2532;52.480;13.354;2024-02-28T15:54:38;8.00;91.80
5027;DHT22;2532;52.480;13.354;2024-02-28T15:57:05;8.00;91.90
5027;DHT22;2532;52.480;13.354;2024-02-28T15:59:32;8.00;91.90
5027;DHT22;2532;52.480;13.354;2024-02-28T16:01:59;7.90;92.00